Time;durP1;ratioP1;P1;durP2;ratioP2;P2;SDS_P1;SDS_P2;PMS_P1;PMS_P2;Temp;Humidity;BMP_temperature;BMP_pressure;BME280_temperature;BME280_humidity;BME280_pressure;Samples;Min_cycle;Max_cycle;Signal;HPM_P1;HPM_P2
2021/03/05 00:00:51;;;;;;;9.23;3.50;;;4.90;93.70;;;;;;5066112;28;20025;-90
2021/03/05 00:03:16;;;;;;;7.32;3.22;;;5.00;93.70;;;;;;5067356;28;20021;-90
2021/03/05 00:05:44;;;;;;;9.45;3.28;;;5.00;93.70;;;;;;5059140;28;20111;-87
2021/03/05 00:08:11;;;;;;;8.05;3.67;;;5.00;93.80;;;;;;5066491;28;20024;-92
2021/03/05 00:10:39;;;;;;;11.10;4.18;;;5.00;93.90;;;;;;5057662;28;20183;-89
2021/03/05 00:13:05;;;;;;;8.68;3.78;;;5.00;94.00;;;;;;5062272;28;20481;-91
2021/03/05 00:15:33;;;;;;;8.48;4.20;;;5.00;94.00;;;;;;5068715;28;20023;-89
2021/03/05 00:17:59;;;;;;;9.30;4.22;;;5.00;94.10;;;;;;5060463;28;20127;-89
2021/03/05 00:20:27;;;;;;;11.98;4.47;;;5.00;94.10;;;;;;5061779;28;20087;-89
2021/03/05 00:22:53;;;;;;;10.85;5.20;;;5.00;94.10;;;;;;5073241;28;20025;-87
2021/03/05 00:25:19;;;;;;;11.27;5.28;;;5.00;94.30;;;;;;5060790;28;20111;-90
2021/03/05 00:27:45;;;;;;;11.57;5.30;;;5.00;94.50;;;;;;5056847;28;20025;-91
2021/03/05 00:30:11;;;;;;;11.80;5.70;;;4.90;94.60;;;;;;5066524;28;20493;-90
2021/03/05 00:32:37;;;;;;;14.50;6.00;;;4.90;94.70;;;;;;5063290;28;20032;-89
2021/03/05 00:35:08;;;;;;;11.38;5.90;;;4.90;94.70;;;;;;5059202;28;20014;-90
2021/03/05 00:37:35;;;;;;;15.70;7.00;;;4.90;94.70;;;;;;5096829;28;20067;-90
2021/03/05 00:40:01;;;;;;;12.27;5.63;;;4.90;94.70;;;;;;5066216;28;20017;-87
2021/03/05 00:42:27;;;;;;;9.70;5.35;;;4.90;94.80;;;;;;5066661;28;20062;-88
2021/03/05 00:44:52;;;;;;;10.85;6.85;;;4.90;94.80;;;;;;5071219;28;20024;-92
2021/03/05 00:47:18;;;;;;;14.25;7.55;;;4.90;94.90;;;;;;5063398;28;20118;-87
2021/03/05 00:49:43;;;;;;;12.98;7.35;;;4.90;95.00;;;;;;5065994;28;20028;-87
2021/03/05 00:52:09;;;;;;;13.25;7.72;;;4.90;95.00;;;;;;5067412;28;20306;-90
2021/03/05 00:54:34;;;;;;;11.38;6.78;;;4.90;95.00;;;;;;5071052;28;20024;-90
2021/03/05 00:57:00;;;;;;;14.15;7.78;;;4.80;95.00;;;;;;5059809;28;20029;-93
2021/03/05 00:59:26;;;;;;;12.75;7.57;;;4.90;95.00;;;;;;5061727;28;20021;-86
2021/03/05 01:01:51;;;;;;;13.15;8.25;;;4.80;95.00;;;;;;5062600;28;20548;-91
2021/03/05 01:04:17;;;;;;;15.07;7.90;;;4.80;95.10;;;;;;5065791;28;20028;-87
2021/03/05 01:06:43;;;;;;;14.40;8.80;;;4.80;95.10;;;;;;5065573;28;20115;-88
2021/03/05 01:09:08;;;;;;;12.93;7.97;;;4.80;95.10;;;;;;5065019;28;20033;-90
2021/03/05 01:11:34;;;;;;;13.65;8.07;;;4.80;95.10;;;;;;5066740;28;20112;-87
2021/03/05 01:14:00;;;;;;;13.63;7.53;;;4.80;95.00;;;;;;5058558;28;20013;-87
2021/03/05 01:16:26;;;;;;;15.40;8.23;;;4.80;95.10;;;;;;5064724;28;20473;-92
2021/03/05 01:18:53;;;;;;;14.75;7.80;;;4.80;95.10;;;;;;5064211;28;20025;-90
2021/03/05 01:21:19;;;;;;;13.77;8.10;;;4.80;95.20;;;;;;5067900;28;20074;-91
2021/03/05 01:23:45;;;;;;;15.00;8.93;;;4.70;95.20;;;;;;5065146;28;20069;-89
2021/03/05 01:26:10;;;;;;;14.40;8.00;;;4.70;95.20;;;;;;5072861;28;20024;-86
2021/03/05 01:28:40;;;;;;;12.25;8.15;;;4.60;95.20;;;;;;5059289;28;20464;-89
2021/03/05 01:31:06;;;;;;;12.32;8.15;;;4.50;95.30;;;;;;5074942;28;20016;-88
2021/03/05 01:33:31;;;;;;;13.38;8.68;;;4.40;95.40;;;;;;5078168;28;20044;-89
2021/03/05 01:35:57;;;;;;;10.45;6.75;;;4.40;95.50;;;;;;5071295;28;20111;-90
2021/03/05 01:38:22;;;;;;;14.70;8.38;;;4.30;95.50;;;;;;5070078;28;20107;-88
2021/03/05 01:40:48;;;;;;;11.63;7.60;;;4.30;95.50;;;;;;5076141;28;20401;-92
2021/03/05 01:43:16;;;;;;;12.30;8.02;;;4.20;95.60;;;;;;5069300;28;20013;-91
2021/03/05 01:45:42;;;;;;;10.70;6.70;;;4.10;95.60;;;;;;5068656;28;20028;-88
2021/03/05 01:48:11;;;;;;;12.30;7.80;;;4.00;95.70;;;;;;5062866;28;20025;-89
2021/03/05 01:51:09;;;;;;;11.75;7.60;;;4.00;95.70;;;;;;5065411;28;20411;-86
2021/03/05 01:53:35;;;;;;;15.10;9.25;;;3.90;95.80;;;;;;5062337;28;20017;-87
2021/03/05 01:56:02;;;;;;;13.90;7.97;;;3.80;96.00;;;;;;5069075;28;20109;-88
2021/03/05 01:58:28;;;;;;;14.40;8.85;;;3.70;96.00;;;;;;5065782;28;20044;-89
2021/03/05 02:01:08;;;;;;;13.95;9.25;;;3.70;96.10;;;;;;5071655;28;20025;-91
2021/03/05 02:03:34;;;;;;;12.20;7.25;;;3.70;96.10;;;;;;5062281;28;20055;-88
2021/03/05 02:06:02;;;;;;;14.15;7.57;;;3.60;96.10;;;;;;5064625;28;20029;-90
2021/03/05 02:08:27;;;;;;;12.43;7.35;;;3.50;96.10;;;;;;5068640;28;20024;-92
2021/03/05 02:10:53;;;;;;;11.95;7.72;;;3.50;96.10;;;;;;5072916;28;20028;-89
2021/03/05 02:13:18;;;;;;;12.30;7.30;;;3.40;96.20;;;;;;5066732;28;20027;-90
2021/03/05 02:15:44;;;;;;;10.07;6.50;;;3.40;96.20;;;;;;5074903;28;20013;-90
2021/03/05 02:18:33;;;;;;;12.63;7.03;;;3.30;96.30;;;;;;5067371;28;20046;-90
2021/03/05 02:21:24;;;;;;;10.00;6.90;;;3.30;96.40;;;;;;5076181;28;20021;-93
2021/03/05 02:24:46;;;;;;;10.32;6.88;;;3.30;96.30;;;;;;5088377;28;20112;-90
2021/03/05 02:27:49;;;;;;;11.20;6.80;;;3.20;96.30;;;;;;5066080;28;20044;-91
2021/03/05 02:30:43;;;;;;;10.02;7.18;;;3.10;96.40;;;;;;5071425;28;20027;-91
2021/03/05 02:33:24;;;;;;;11.82;7.35;;;3.10;96.50;;;;;;5066096;28;20056;-91
2021/03/05 02:35:51;;;;;;;15.88;7.80;;;3.10;96.60;;;;;;5072313;28;20464;-91
2021/03/05 02:38:19;;;;;;;11.20;7.22;;;3.00;96.50;;;;;;5069566;28;20063;-91
2021/03/05 02:40:50;;;;;;;9.35;6.28;;;3.00;96.50;;;;;;5067106;28;20024;-91
2021/03/05 02:43:19;;;;;;;10.23;6.82;;;3.00;96.50;;;;;;5068243;28;20031;-91
2021/03/05 02:45:49;;;;;;;10.85;7.25;;;3.00;96.50;;;;;;5066644;28;20116;-92
2021/03/05 02:48:21;;;;;;;14.02;7.57;;;3.00;96.60;;;;;;5068016;28;20029;-90
2021/03/05 02:50:51;;;;;;;11.00;7.05;;;2.90;96.60;;;;;;5067814;28;20103;-90
2021/03/05 02:53:19;;;;;;;11.48;7.22;;;2.90;96.80;;;;;;5064259;28;20020;-91
2021/03/05 02:55:48;;;;;;;12.45;7.32;;;2.80;96.90;;;;;;5065041;28;20070;-87
2021/03/05 02:58:14;;;;;;;13.48;7.75;;;2.80;97.00;;;;;;5064865;28;20382;-89
2021/03/05 03:00:43;;;;;;;12.70;7.93;;;2.80;97.10;;;;;;5071988;28;20012;-88
2021/03/05 03:03:11;;;;;;;10.70;7.07;;;2.70;97.30;;;;;;5066407;28;20028;-91
2021/03/05 03:05:37;;;;;;;13.73;7.07;;;2.70;97.30;;;;;;5061600;28;20025;-91
2021/03/05 03:08:06;;;;;;;13.68;8.65;;;2.60;97.50;;;;;;5069522;28;20391;-92
2021/03/05 03:10:34;;;;;;;13.10;7.97;;;2.60;97.50;;;;;;5064748;28;20472;-92
2021/03/05 03:13:02;;;;;;;12.88;7.70;;;2.60;97.80;;;;;;5063359;28;20025;-88
2021/03/05 03:15:30;;;;;;;13.60;7.63;;;2.60;97.60;;;;;;5065150;28;20032;-91
2021/03/05 03:17:57;;;;;;;14.68;8.52;;;2.50;97.60;;;;;;5068915;28;20020;-90
2021/03/05 03:20:25;;;;;;;14.57;7.28;;;2.50;97.70;;;;;;5069736;28;20025;-92
2021/03/05 03:22:50;;;;;;;14.90;8.38;;;2.50;97.70;;;;;;5064741;28;20029;-92
2021/03/05 03:25:16;;;;;;;11.63;7.45;;;2.50;97.50;;;;;;5072245;28;20494;-90
2021/03/05 03:27:44;;;;;;;19.50;8.55;;;2.50;97.40;;;;;;5057095;28;20115;-90
2021/03/05 03:30:12;;;;;;;13.35;7.63;;;2.50;97.40;;;;;;5064643;28;20039;-92
2021/03/05 03:32:38;;;;;;;14.38;8.40;;;2.50;97.40;;;;;;5063269;28;20021;-91
2021/03/05 03:35:09;;;;;;;15.27;9.02;;;2.50;97.50;;;;;;5066478;28;20054;-91
2021/03/05 03:37:36;;;;;;;13.32;8.55;;;2.40;97.40;;;;;;5072084;28;20020;-91
2021/03/05 03:40:17;;;;;;;11.32;7.00;;;2.30;97.50;;;;;;5070634;28;20040;-93
2021/03/05 03:42:44;;;;;;;13.70;7.38;;;2.30;97.60;;;;;;5070949;28;20024;-92
2021/03/05 03:45:12;;;;;;;14.43;9.32;;;2.20;97.70;;;;;;5059719;28;20025;-91
2021/03/05 03:47:38;;;;;;;14.90;8.13;;;2.20;97.80;;;;;;5068993;28;20021;-90
2021/03/05 03:50:07;;;;;;;13.52;7.82;;;2.20;97.70;;;;;;5067181;28;20028;-91
2021/03/05 03:53:04;;;;;;;11.50;6.80;;;2.20;97.70;;;;;;5061502;28;20494;-93
2021/03/05 03:55:30;;;;;;;13.80;7.28;;;2.10;97.80;;;;;;5051121;28;20255;-89
2021/03/05 03:57:56;;;;;;;14.32;7.45;;;2.10;97.80;;;;;;5098833;28;20502;-90
2021/03/05 04:00:24;;;;;;;14.93;7.72;;;2.10;97.80;;;;;;5065419;28;20024;-91
2021/03/05 04:02:52;;;;;;;12.40;6.53;;;2.00;97.80;;;;;;5068781;28;20086;-92
2021/03/05 04:05:23;;;;;;;12.23;7.00;;;2.00;97.80;;;;;;5066474;28;20115;-92
2021/03/05 04:07:51;;;;;;;10.32;6.63;;;2.00;97.80;;;;;;5064379;28;20485;-91
2021/03/05 04:10:17;;;;;;;10.95;6.10;;;2.00;97.90;;;;;;5068114;28;20111;-91
2021/03/05 04:12:44;;;;;;;11.30;6.10;;;1.90;97.80;;;;;;5065495;28;20112;-91
2021/03/05 04:15:11;;;;;;;10.00;5.78;;;1.90;97.90;;;;;;5072007;28;20404;-91
2021/03/05 04:17:37;;;;;;;12.52;5.57;;;1.90;97.80;;;;;;5070541;28;20016;-91
2021/03/05 04:20:04;;;;;;;9.63;6.25;;;1.90;97.90;;;;;;5075788;28;20081;-92
2021/03/05 04:22:31;;;;;;;11.90;7.25;;;1.80;97.90;;;;;;5065159;28;20017;-93
2021/03/05 04:24:56;;;;;;;12.07;6.78;;;1.80;97.90;;;;;;5068770;28;20025;-91
2021/03/05 04:27:22;;;;;;;11.50;6.07;;;1.80;97.70;;;;;;5063219;28;20031;-91
2021/03/05 04:29:47;;;;;;;9.85;6.13;;;1.80;97.80;;;;;;5063913;28;20025;-92
2021/03/05 04:32:13;;;;;;;9.05;5.32;;;1.80;97.80;;;;;;5061175;28;20070;-91
2021/03/05 04:34:38;;;;;;;9.40;5.43;;;1.70;97.80;;;;;;5064964;28;20054;-92
2021/03/05 04:37:04;;;;;;;7.20;5.18;;;1.70;97.80;;;;;;5068695;28;20021;-92
2021/03/05 04:39:29;;;;;;;11.95;6.75;;;1.60;97.70;;;;;;5067033;28;20059;-91
2021/03/05 04:41:55;;;;;;;10.80;6.18;;;1.60;97.80;;;;;;5068891;28;20024;-92
2021/03/05 04:44:21;;;;;;;9.20;5.68;;;1.60;97.80;;;;;;5064060;28;20032;-91
2021/03/05 04:46:46;;;;;;;11.90;6.28;;;1.60;97.80;;;;;;5064827;28;20120;-91
2021/03/05 04:49:12;;;;;;;11.15;6.25;;;1.60;97.80;;;;;;5060108;28;20037;-92
2021/03/05 04:51:37;;;;;;;13.73;5.75;;;1.50;97.70;;;;;;5067898;28;20017;-92
2021/03/05 04:54:03;;;;;;;10.23;5.57;;;1.50;97.80;;;;;;5067377;28;20044;-91
2021/03/05 04:56:29;;;;;;;9.85;4.90;;;1.50;97.80;;;;;;5065017;28;20455;-91
2021/03/05 04:58:55;;;;;;;8.77;5.25;;;1.50;97.70;;;;;;5067700;28;20078;-92
2021/03/05 05:01:20;;;;;;;9.02;5.35;;;1.40;97.60;;;;;;5067012;28;20104;-91
2021/03/05 05:03:46;;;;;;;8.82;5.22;;;1.40;97.70;;;;;;5066601;28;20115;-91
2021/03/05 05:06:13;;;;;;;10.25;5.55;;;1.40;97.70;;;;;;5075536;28;20050;-88
2021/03/05 05:08:38;;;;;;;12.60;5.95;;;1.30;97.60;;;;;;5071927;28;20021;-92
2021/03/05 05:11:04;;;;;;;13.68;6.30;;;1.30;97.70;;;;;;5072671;28;20395;-94
2021/03/05 05:13:30;;;;;;;10.18;5.22;;;1.30;97.60;;;;;;5073432;28;20016;-94
2021/03/05 05:15:56;;;;;;;9.13;5.25;;;1.30;97.60;;;;;;5071517;28;20491;-93
2021/03/05 05:18:22;;;;;;;7.80;4.57;;;1.30;97.60;;;;;;5069396;28;20028;-94
2021/03/05 05:20:48;;;;;;;9.07;4.22;;;1.30;97.50;;;;;;5064724;28;20047;-93
2021/03/05 05:23:14;;;;;;;5.47;3.40;;;1.30;97.50;;;;;;5072493;28;20031;-93
2021/03/05 05:25:39;;;;;;;7.13;4.28;;;1.30;97.40;;;;;;5077563;28;20388;-92
2021/03/05 05:28:05;;;;;;;8.57;3.92;;;1.30;97.50;;;;;;5070874;28;20544;-93
2021/03/05 05:30:30;;;;;;;9.65;4.68;;;1.30;97.40;;;;;;5071964;28;20012;-93
2021/03/05 05:32:56;;;;;;;6.68;4.00;;;1.30;97.40;;;;;;5063285;28;20488;-93
2021/03/05 05:35:22;;;;;;;7.53;4.22;;;1.20;97.30;;;;;;5060292;28;20021;-93
2021/03/05 05:37:48;;;;;;;8.70;4.57;;;1.20;97.30;;;;;;5086048;28;20055;-93
2021/03/05 05:40:14;;;;;;;6.18;3.75;;;1.10;97.30;;;;;;5086945;28;20009;-94
2021/03/05 05:42:40;;;;;;;7.60;4.25;;;1.20;97.30;;;;;;5083533;28;20009;-94
2021/03/05 05:45:06;;;;;;;6.63;3.40;;;1.10;97.30;;;;;;5094342;28;20008;-92
2021/03/05 05:47:35;;;;;;;7.72;4.45;;;1.10;97.40;;;;;;5099822;28;20013;-93
2021/03/05 05:50:06;;;;;;;6.85;4.20;;;1.10;97.70;;;;;;5066345;28;20103;-93
2021/03/05 05:52:34;;;;;;;6.90;4.35;;;1.10;97.50;;;;;;5071619;28;20100;-92
2021/03/05 05:55:05;;;;;;;7.10;4.28;;;1.00;97.40;;;;;;5066574;28;20021;-93
2021/03/05 05:57:32;;;;;;;7.80;4.28;;;1.10;97.40;;;;;;5069840;28;20029;-92
2021/03/05 05:59:59;;;;;;;9.32;4.25;;;1.10;97.30;;;;;;5063422;28;20032;-92
2021/03/05 06:02:26;;;;;;;10.52;5.22;;;1.10;97.30;;;;;;5076285;28;20093;-93
2021/03/05 06:04:54;;;;;;;8.80;4.75;;;1.10;97.20;;;;;;5065873;28;20635;-92
2021/03/05 06:07:21;;;;;;;9.15;5.13;;;1.10;97.20;;;;;;5059850;28;20039;-92
2021/03/05 06:09:49;;;;;;;9.73;4.90;;;1.10;97.20;;;;;;5077691;28;20527;-91
2021/03/05 06:12:15;;;;;;;6.93;3.85;;;1.00;97.10;;;;;;5078354;28;20043;-92
2021/03/05 06:14:41;;;;;;;7.70;4.18;;;1.00;97.10;;;;;;5074894;28;20025;-91
2021/03/05 06:17:07;;;;;;;6.28;4.05;;;1.10;97.00;;;;;;5074762;28;20468;-90
2021/03/05 06:19:33;;;;;;;7.15;4.20;;;1.00;97.00;;;;;;5074861;28;20483;-91
2021/03/05 06:21:59;;;;;;;7.22;3.75;;;1.00;97.00;;;;;;5074214;28;20032;-90
2021/03/05 06:24:26;;;;;;;9.40;4.05;;;1.00;97.10;;;;;;5073684;28;20028;-91
2021/03/05 06:27:00;;;;;;;6.10;3.72;;;1.00;97.10;;;;;;5070920;28;20025;-90
2021/03/05 06:29:49;;;;;;;9.20;4.32;;;0.90;97.10;;;;;;5049136;28;20023;-84
2021/03/05 06:32:16;;;;;;;8.35;4.20;;;1.00;97.10;;;;;;5074313;28;20031;-83
2021/03/05 06:34:53;;;;;;;8.98;4.60;;;0.90;97.20;;;;;;5090927;28;20395;-83
2021/03/05 06:37:20;;;;;;;8.15;4.10;;;0.90;97.20;;;;;;5093489;28;20027;-84
2021/03/05 06:39:57;;;;;;;11.82;4.50;;;0.90;97.20;;;;;;5072882;28;20079;-83
2021/03/05 06:42:23;;;;;;;10.45;4.85;;;0.90;97.10;;;;;;5106693;28;20089;-83
2021/03/05 06:44:48;;;;;;;9.57;4.97;;;0.80;97.10;;;;;;5072323;28;20115;-85
2021/03/05 06:47:21;;;;;;;10.00;4.65;;;0.80;97.20;;;;;;5072697;28;20032;-85
2021/03/05 06:49:49;;;;;;;7.57;3.85;;;0.80;97.20;;;;;;5072595;28;20028;-82
2021/03/05 06:52:17;;;;;;;8.13;4.25;;;0.80;97.10;;;;;;5071930;28;20491;-88
2021/03/05 06:54:45;;;;;;;6.55;4.00;;;0.80;97.20;;;;;;5073915;28;20035;-86
2021/03/05 06:57:12;;;;;;;8.40;4.55;;;0.90;97.20;;;;;;5072419;28;20381;-84
2021/03/05 06:59:40;;;;;;;8.98;3.97;;;0.90;97.20;;;;;;5071877;28;20027;-87
2021/03/05 07:02:10;;;;;;;8.02;4.25;;;0.90;97.10;;;;;;5078982;28;20031;-84
2021/03/05 07:04:47;;;;;;;8.85;4.07;;;0.90;96.90;;;;;;5092553;28;20441;-84
2021/03/05 07:07:13;;;;;;;6.70;3.78;;;0.90;96.90;;;;;;5092668;28;20028;-84
2021/03/05 07:09:54;;;;;;;6.35;3.17;;;0.90;97.00;;;;;;5075483;28;20112;-89
2021/03/05 07:12:23;;;;;;;8.63;3.83;;;1.00;96.90;;;;;;5073301;28;20062;-87
2021/03/05 07:15:05;;;;;;;7.78;4.15;;;0.90;96.90;;;;;;5076368;28;20379;-87
2021/03/05 07:17:30;;;;;;;9.73;4.20;;;1.00;96.90;;;;;;5088029;28;20017;-88
2021/03/05 07:19:56;;;;;;;8.55;3.72;;;1.00;96.90;;;;;;5094600;28;20020;-89
2021/03/05 07:22:29;;;;;;;8.80;4.03;;;1.00;96.90;;;;;;5089468;28;20032;-88
2021/03/05 07:24:57;;;;;;;6.72;3.50;;;1.00;96.80;;;;;;5068078;28;20064;-88
2021/03/05 07:27:34;;;;;;;6.07;3.40;;;1.00;96.80;;;;;;5050356;28;20511;-88
2021/03/05 07:30:01;;;;;;;6.50;3.50;;;1.00;96.80;;;;;;5086812;28;20028;-89
2021/03/05 07:32:37;;;;;;;6.35;3.45;;;1.10;96.80;;;;;;5092720;28;20044;-89
2021/03/05 07:35:05;;;;;;;5.60;2.70;;;1.10;96.70;;;;;;5094546;28;20030;-89
2021/03/05 07:37:45;;;;;;;5.75;2.83;;;1.20;96.70;;;;;;5085179;28;20107;-87
2021/03/05 07:40:15;;;;;;;4.35;2.88;;;1.20;96.60;;;;;;5077395;28;20024;-87
2021/03/05 07:42:42;;;;;;;6.72;3.17;;;1.20;96.60;;;;;;5079753;28;20033;-88
2021/03/05 07:45:10;;;;;;;6.90;2.30;;;1.30;96.60;;;;;;5073586;28;20024;-89
2021/03/05 07:47:38;;;;;;;6.53;2.80;;;1.40;96.60;;;;;;5073169;28;20031;-88
2021/03/05 07:50:06;;;;;;;5.97;2.85;;;1.40;96.50;;;;;;5086661;28;20028;-90
2021/03/05 07:52:32;;;;;;;6.15;2.78;;;1.50;96.50;;;;;;5094243;28;20375;-89
2021/03/05 07:54:58;;;;;;;7.10;3.25;;;1.50;96.40;;;;;;5089739;28;20133;-88
2021/03/05 07:57:24;;;;;;;8.45;2.55;;;1.50;96.30;;;;;;5083965;28;20053;-88
2021/03/05 07:59:51;;;;;;;5.93;2.78;;;1.60;96.20;;;;;;5073848;28;20119;-89
2021/03/05 08:02:22;;;;;;;6.53;2.35;;;1.60;96.20;;;;;;5073723;28;20032;-87
2021/03/05 08:04:50;;;;;;;7.30;2.72;;;1.70;96.20;;;;;;5075037;28;20502;-89
2021/03/05 08:07:22;;;;;;;5.38;2.60;;;1.70;96.00;;;;;;5084062;28;20058;-89
2021/03/05 08:09:48;;;;;;;6.70;3.08;;;1.80;96.00;;;;;;5076443;28;20029;-88
2021/03/05 08:12:31;;;;;;;6.00;3.10;;;1.80;96.00;;;;;;5072325;28;20020;-88
2021/03/05 08:15:09;;;;;;;6.53;2.33;;;1.90;95.80;;;;;;5072446;28;20480;-88
2021/03/05 08:17:44;;;;;;;5.03;2.00;;;1.90;95.80;;;;;;5071843;28;20503;-87
2021/03/05 08:20:17;;;;;;;6.00;2.88;;;2.00;95.80;;;;;;5088125;28;20043;-86
2021/03/05 08:23:02;;;;;;;8.23;2.78;;;2.00;95.60;;;;;;5095090;28;20407;-89
2021/03/05 08:25:32;;;;;;;5.90;2.67;;;2.10;95.50;;;;;;5094542;28;20032;-88
2021/03/05 08:28:03;;;;;;;4.38;1.70;;;2.10;95.50;;;;;;5092737;28;20023;-87
2021/03/05 08:30:28;;;;;;;5.50;2.40;;;2.20;95.50;;;;;;5078430;28;20028;-85
2021/03/05 08:33:27;;;;;;;4.63;2.00;;;2.20;95.40;;;;;;5091452;28;20543;-86
2021/03/05 08:35:53;;;;;;;5.47;2.08;;;2.30;95.40;;;;;;5091159;28;20096;-86
2021/03/05 08:38:32;;;;;;;5.85;2.03;;;2.40;95.60;;;;;;5070668;28;21139;-86
2021/03/05 08:41:03;;;;;;;7.10;2.30;;;2.40;95.20;;;;;;5035778;28;20035;-86
2021/03/05 08:43:36;;;;;;;7.13;2.30;;;2.50;95.00;;;;;;5054280;28;20080;-86
2021/03/05 08:46:07;;;;;;;4.25;1.83;;;2.60;94.90;;;;;;5075187;28;20028;-86
2021/03/05 08:48:44;;;;;;;5.75;2.30;;;2.60;94.80;;;;;;5076526;28;20028;-85
2021/03/05 08:51:17;;;;;;;4.72;1.75;;;2.70;94.70;;;;;;5089863;28;20036;-84
2021/03/05 08:53:53;;;;;;;11.60;2.80;;;2.70;94.60;;;;;;5045775;28;20060;-87
2021/03/05 08:56:22;;;;;;;5.50;1.85;;;2.80;94.50;;;;;;5051421;28;20249;-84
2021/03/05 08:59:04;;;;;;;7.13;1.90;;;2.80;94.30;;;;;;5119210;27;20039;-84
2021/03/05 09:01:34;;;;;;;7.65;2.20;;;2.90;93.60;;;;;;5094581;28;20020;-85
2021/03/05 09:04:17;;;;;;;5.30;1.63;;;2.90;93.50;;;;;;5095092;28;20024;-85
2021/03/05 09:06:57;;;;;;;6.15;1.83;;;2.90;93.50;;;;;;5094718;28;20036;-86
2021/03/05 09:09:39;;;;;;;2.95;1.30;;;3.00;93.40;;;;;;5094776;28;20052;-86
2021/03/05 09:12:14;;;;;;;4.65;1.23;;;3.10;93.30;;;;;;5059933;28;20044;-85
2021/03/05 09:15:04;;;;;;;4.97;1.55;;;3.20;93.20;;;;;;5050007;28;20056;-83
2021/03/05 09:17:29;;;;;;;4.03;1.30;;;3.30;92.50;;;;;;5067872;28;20063;-85
2021/03/05 09:19:55;;;;;;;2.78;1.00;;;3.30;91.90;;;;;;5074370;28;20048;-82
2021/03/05 09:22:25;;;;;;;4.13;1.50;;;3.40;91.50;;;;;;5074233;28;20496;-84
2021/03/05 09:24:58;;;;;;;5.65;0.95;;;3.40;91.30;;;;;;5074174;28;20119;-86
2021/03/05 09:27:28;;;;;;;6.53;0.93;;;3.50;91.00;;;;;;5107558;28;20024;-83
2021/03/05 09:29:54;;;;;;;;;;;3.60;90.60;;;;;;5083158;28;20035;-85
2021/03/05 09:32:21;;;;;;;3.60;0.60;;;3.60;89.30;;;;;;5074708;28;19908;-83
2021/03/05 09:34:51;;;;;;;2.55;0.60;;;3.70;85.40;;;;;;5082378;28;20049;-84
2021/03/05 09:37:17;;;;;;;3.10;0.68;;;3.80;84.90;;;;;;5084887;28;20031;-84
2021/03/05 09:39:44;;;;;;;2.63;0.40;;;3.90;84.30;;;;;;5084422;28;20028;-83
2021/03/05 09:42:10;;;;;;;3.35;0.70;;;4.00;82.70;;;;;;5082620;28;20035;-84
2021/03/05 09:44:47;;;;;;;3.03;0.70;;;4.10;81.80;;;;;;5074755;28;20020;-86
2021/03/05 09:47:13;;;;;;;2.50;0.70;;;4.20;80.80;;;;;;5073175;28;20061;-86
2021/03/05 09:49:39;;;;;;;3.88;0.80;;;4.30;80.50;;;;;;5073937;28;20094;-85
2021/03/05 09:52:05;;;;;;;2.08;0.70;;;4.30;80.20;;;;;;5073870;28;20475;-83
2021/03/05 09:54:36;;;;;;;5.78;1.17;;;4.40;80.80;;;;;;5074844;28;20039;-84
2021/03/05 09:57:02;;;;;;;4.13;0.80;;;4.60;79.70;;;;;;5072866;28;20048;-85
2021/03/05 09:59:51;;;;;;;4.25;0.80;;;4.80;77.20;;;;;;5076732;28;20028;-86
2021/03/05 10:02:21;;;;;;;4.70;0.50;;;5.10;77.20;;;;;;5127771;27;20459;-87
2021/03/05 10:04:47;;;;;;;;;;;5.30;77.20;;;;;;5128323;27;20031;-87
2021/03/05 10:07:13;;;;;;;5.00;0.63;;;5.50;76.90;;;;;;5094908;28;19915;-86
2021/03/05 10:09:39;;;;;;;4.18;0.68;;;5.60;75.20;;;;;;5093520;28;20032;-85
2021/03/05 10:12:05;;;;;;;1.50;0.50;;;5.90;75.50;;;;;;5093225;28;20028;-83
2021/03/05 10:14:33;;;;;;;3.15;0.68;;;6.20;73.80;;;;;;5093634;28;20020;-85
2021/03/05 10:17:17;;;;;;;2.70;0.40;;;6.50;72.20;;;;;;5094766;28;20020;-83
2021/03/05 10:19:43;;;;;;;1.23;0.50;;;6.80;72.20;;;;;;5093434;28;20032;-84
2021/03/05 10:22:11;;;;;;;1.60;0.60;;;6.90;69.60;;;;;;5094621;28;20028;-84
2021/03/05 10:24:37;;;;;;;2.42;0.60;;;7.10;67.00;;;;;;5093217;28;20032;-85
2021/03/05 10:27:21;;;;;;;2.80;0.70;;;7.20;59.70;;;;;;5088737;28;20036;-82
2021/03/05 10:29:47;;;;;;;1.80;0.50;;;7.40;59.60;;;;;;5111375;27;20033;-87
2021/03/05 10:32:40;;;;;;;3.83;0.80;;;7.90;60.90;;;;;;5075668;28;20032;-87
2021/03/05 10:35:12;;;;;;;2.75;0.60;;;9.40;58.70;;;;;;5072984;28;20021;-87
2021/03/05 10:37:42;;;;;;;3.45;0.80;;;10.20;56.30;;;;;;5072926;28;20027;-85
2021/03/05 10:40:14;;;;;;;4.28;0.60;;;10.60;54.40;;;;;;5073875;28;20099;-85
2021/03/05 10:42:40;;;;;;;1.58;0.80;;;10.70;53.10;;;;;;5072837;28;20028;-87
2021/03/05 10:45:07;;;;;;;4.38;0.93;;;11.10;49.70;;;;;;5074311;28;20039;-86
2021/03/05 10:47:34;;;;;;;2.60;0.50;;;11.80;50.40;;;;;;5072658;28;20426;-86
2021/03/05 10:49:59;;;;;;;2.97;0.47;;;11.90;48.60;;;;;;5073010;28;20025;-87
2021/03/05 10:52:26;;;;;;;2.90;0.50;;;12.30;47.50;;;;;;5074131;28;20051;-85
2021/03/05 10:54:53;;;;;;;1.38;0.40;;;13.20;46.40;;;;;;5072814;28;20021;-87
2021/03/05 10:57:20;;;;;;;2.53;0.50;;;12.90;47.70;;;;;;5090944;28;20041;-87
2021/03/05 10:59:49;;;;;;;2.70;0.40;;;12.20;46.60;;;;;;5073831;28;20419;-87
2021/03/05 11:02:16;;;;;;;2.42;0.40;;;11.40;47.80;;;;;;5106640;28;20024;-87
2021/03/05 11:04:42;;;;;;;1.73;0.65;;;11.10;48.30;;;;;;5106906;28;20052;-88
2021/03/05 11:07:08;;;;;;;2.55;0.50;;;11.00;48.90;;;;;;5075801;28;20038;-87
2021/03/05 11:09:33;;;;;;;2.38;0.55;;;11.50;46.90;;;;;;5082844;28;20051;-89
2021/03/05 11:12:00;;;;;;;2.05;0.60;;;11.40;47.20;;;;;;5083302;28;20021;-88
2021/03/05 11:14:27;;;;;;;2.75;0.57;;;11.40;48.40;;;;;;5083887;28;20031;-87
2021/03/05 11:16:53;;;;;;;1.45;0.40;;;11.60;48.20;;;;;;5084135;28;20024;-87
2021/03/05 11:19:20;;;;;;;1.10;0.30;;;12.30;46.00;;;;;;5105122;28;20020;-87
2021/03/05 11:21:45;;;;;;;2.80;0.50;;;13.30;44.80;;;;;;5084668;28;20479;-86
2021/03/05 11:24:12;;;;;;;1.65;0.47;;;14.10;43.60;;;;;;5084056;28;20036;-85
2021/03/05 11:26:38;;;;;;;1.10;0.38;;;14.80;43.40;;;;;;5083743;28;20529;-87
2021/03/05 11:29:04;;;;;;;0.85;0.50;;;15.10;43.60;;;;;;5081172;28;20101;-86
2021/03/05 11:31:30;;;;;;;1.52;0.40;;;15.40;40.20;;;;;;5083652;28;20036;-86
2021/03/05 11:33:55;;;;;;;3.45;0.50;;;15.30;38.20;;;;;;5084069;28;20017;-87
2021/03/05 11:36:21;;;;;;;1.55;0.40;;;15.40;36.20;;;;;;5077977;28;20029;-88
2021/03/05 11:38:49;;;;;;;2.53;0.60;;;15.60;35.90;;;;;;5072815;28;20020;-89
2021/03/05 11:41:15;;;;;;;0.75;0.30;;;15.30;34.80;;;;;;5072224;28;20533;-88
2021/03/05 11:43:49;;;;;;;1.50;0.30;;;15.30;34.70;;;;;;5072500;28;20028;-89
2021/03/05 11:46:16;;;;;;;2.50;0.50;;;15.80;36.70;;;;;;5072189;28;20021;-87
2021/03/05 11:48:42;;;;;;;0.63;0.35;;;15.60;35.60;;;;;;5073264;28;20027;-90
2021/03/05 11:51:08;;;;;;;1.45;0.40;;;15.00;37.30;;;;;;5072361;28;20028;-89
2021/03/05 11:53:34;;;;;;;2.10;0.30;;;14.80;36.50;;;;;;5074261;28;20482;-90
2021/03/05 11:56:00;;;;;;;0.75;0.38;;;14.80;36.80;;;;;;5082065;28;20028;-90
2021/03/05 11:58:25;;;;;;;1.33;0.38;;;14.90;38.50;;;;;;5070103;28;20049;-90
2021/03/05 12:00:51;;;;;;;1.73;0.50;;;15.30;39.40;;;;;;5062455;28;20028;-88
2021/03/05 12:03:16;;;;;;;0.50;0.28;;;15.60;38.10;;;;;;5069196;28;20029;-91
2021/03/05 12:05:42;;;;;;;1.85;0.30;;;16.00;37.80;;;;;;5056745;28;20031;-90
2021/03/05 12:08:08;;;;;;;1.25;0.40;;;16.20;38.20;;;;;;5054246;28;20465;-88
2021/03/05 12:10:33;;;;;;;1.58;0.30;;;16.50;36.40;;;;;;5054838;28;20071;-88
2021/03/05 12:12:59;;;;;;;0.50;0.20;;;16.70;35.80;;;;;;5053373;28;20029;-88
2021/03/05 12:15:24;;;;;;;1.27;0.45;;;17.00;35.50;;;;;;5064872;28;20055;-88
2021/03/05 12:17:50;;;;;;;1.30;0.40;;;17.30;34.30;;;;;;5070295;28;20027;-87
2021/03/05 12:20:16;;;;;;;3.20;0.47;;;17.40;30.30;;;;;;5054511;28;20025;-88
2021/03/05 12:22:42;;;;;;;1.55;0.45;;;17.20;30.70;;;;;;5067611;28;20377;-89
2021/03/05 12:25:08;;;;;;;1.23;0.30;;;16.80;30.10;;;;;;5060267;28;20081;-88
2021/03/05 12:27:34;;;;;;;4.00;0.57;;;16.30;30.00;;;;;;5060703;28;20024;-85
2021/03/05 12:30:01;;;;;;;1.05;0.55;;;15.90;30.30;;;;;;5060630;28;20379;-89
2021/03/05 12:32:26;;;;;;;1.45;0.30;;;16.20;30.70;;;;;;5095304;28;20027;-89
2021/03/05 12:34:52;;;;;;;1.13;0.25;;;16.30;30.70;;;;;;5064671;28;20428;-88
2021/03/05 12:37:18;;;;;;;1.73;0.40;;;16.20;32.40;;;;;;5068408;28;20475;-90
2021/03/05 12:39:44;;;;;;;1.25;0.38;;;16.10;33.10;;;;;;5068218;28;20021;-90
2021/03/05 12:42:10;;;;;;;0.80;0.20;;;16.50;33.40;;;;;;5069770;28;20476;-91
2021/03/05 12:44:36;;;;;;;1.13;0.55;;;16.50;33.30;;;;;;5061570;28;20024;-90
2021/03/05 12:47:02;;;;;;;1.23;0.50;;;16.50;32.90;;;;;;5071284;28;20523;-92
2021/03/05 12:49:28;;;;;;;1.33;0.35;;;17.00;32.40;;;;;;5065192;28;20568;-92
2021/03/05 12:51:53;;;;;;;0.40;0.40;;;16.90;31.90;;;;;;5061366;28;20103;-88
2021/03/05 12:54:19;;;;;;;1.48;0.40;;;17.10;32.90;;;;;;5075155;28;20504;-89
2021/03/05 12:56:44;;;;;;;0.93;0.40;;;17.40;33.20;;;;;;5069738;28;20036;-87
2021/03/05 12:59:10;;;;;;;2.08;0.40;;;17.80;32.20;;;;;;5074870;28;20115;-89
2021/03/05 13:01:36;;;;;;;1.30;0.43;;;18.30;30.00;;;;;;5058020;28;20016;-88